Time;durP1;ratioP1;P1;durP2;ratioP2;P2;SDS_P1;SDS_P2;PMS_P1;PMS_P2;Temp;Humidity;BMP_temperature;BMP_pressure;BME280_temperature;BME280_humidity;BME280_pressure;Samples;Min_cycle;Max_cycle;Signal;HPM_P1;HPM_P2
2022/07/22 00:00:19;;;;;;;5.63;0.93;;;16.60;99.90;;;;;;5060403;28;20032;-74
2022/07/22 00:02:46;;;;;;;5.32;1.20;;;16.60;99.90;;;;;;5096180;28;20043;-74
2022/07/22 00:05:12;;;;;;;3.47;0.88;;;16.70;99.90;;;;;;5098453;28;20087;-73
2022/07/22 00:07:39;;;;;;;5.50;1.20;;;16.70;99.90;;;;;;5077773;28;20364;-74
2022/07/22 00:10:08;;;;;;;4.13;1.02;;;16.70;99.90;;;;;;5084053;28;20032;-74
2022/07/22 00:12:34;;;;;;;5.45;0.90;;;16.60;99.90;;;;;;5080000;28;20403;-74
2022/07/22 00:15:01;;;;;;;4.90;0.85;;;16.60;99.90;;;;;;5081239;28;20057;-74
2022/07/22 00:17:30;;;;;;;5.55;0.80;;;16.60;99.90;;;;;;5054255;28;20065;-74
2022/07/22 00:19:59;;;;;;;5.57;0.77;;;16.70;99.90;;;;;;5097324;28;20032;-74
2022/07/22 00:22:26;;;;;;;4.68;0.73;;;16.60;99.90;;;;;;5092854;28;20040;-74
2022/07/22 00:24:52;;;;;;;5.63;1.17;;;16.60;99.90;;;;;;5099304;28;20048;-74
2022/07/22 00:27:18;;;;;;;8.25;1.50;;;16.60;99.90;;;;;;5080143;28;20128;-74
2022/07/22 00:29:45;;;;;;;5.75;1.20;;;16.60;99.90;;;;;;5077818;28;20028;-74
2022/07/22 00:32:11;;;;;;;6.65;1.17;;;16.60;99.90;;;;;;5083550;28;20040;-74
2022/07/22 00:34:37;;;;;;;2.90;0.93;;;16.60;99.90;;;;;;5066544;28;20042;-74
2022/07/22 00:37:04;;;;;;;5.38;0.90;;;16.50;99.90;;;;;;5076109;28;20099;-74
2022/07/22 00:39:31;;;;;;;4.70;1.00;;;16.50;99.90;;;;;;5077688;28;20039;-74
2022/07/22 00:41:59;;;;;;;3.15;0.65;;;16.50;99.90;;;;;;5082778;28;20043;-73
2022/07/22 00:44:26;;;;;;;2.65;0.70;;;16.60;99.90;;;;;;5090449;28;20024;-74
2022/07/22 00:46:52;;;;;;;4.13;0.70;;;16.60;99.90;;;;;;5084490;28;20039;-74
2022/07/22 00:49:18;;;;;;;3.88;0.85;;;16.60;99.90;;;;;;5077577;28;20028;-74
2022/07/22 00:51:46;;;;;;;4.10;0.80;;;16.60;99.90;;;;;;5073783;28;20031;-74
2022/07/22 00:54:13;;;;;;;3.58;0.95;;;16.60;99.90;;;;;;5082128;28;20032;-74
2022/07/22 00:56:40;;;;;;;4.78;1.20;;;16.70;99.90;;;;;;5085883;28;20031;-74
2022/07/22 00:59:10;;;;;;;4.15;0.90;;;16.70;99.90;;;;;;5067958;28;20033;-74
2022/07/22 01:01:36;;;;;;;3.60;0.95;;;16.70;99.90;;;;;;5100520;28;20027;-74
2022/07/22 01:04:03;;;;;;;4.25;1.00;;;16.80;99.90;;;;;;5104093;28;20028;-74
2022/07/22 01:06:31;;;;;;;8.07;1.40;;;16.70;99.90;;;;;;5088001;28;20039;-73
2022/07/22 01:08:58;;;;;;;5.55;0.90;;;16.80;99.90;;;;;;5098638;28;20035;-73
2022/07/22 01:11:25;;;;;;;2.38;1.13;;;16.80;99.90;;;;;;5064274;28;20393;-73
2022/07/22 01:13:54;;;;;;;3.25;0.95;;;16.80;99.90;;;;;;5085147;28;20047;-73
2022/07/22 01:16:20;;;;;;;4.18;0.90;;;16.80;99.90;;;;;;5065644;28;20501;-74
2022/07/22 01:18:47;;;;;;;3.03;0.80;;;16.80;99.90;;;;;;5092956;28;20035;-74
2022/07/22 01:21:15;;;;;;;2.38;1.00;;;16.80;99.90;;;;;;5091228;28;20036;-74
2022/07/22 01:23:43;;;;;;;2.63;1.05;;;16.80;99.90;;;;;;5075330;28;20044;-75
2022/07/22 01:26:10;;;;;;;1.70;0.80;;;16.80;99.90;;;;;;5097818;28;20060;-75
2022/07/22 01:28:38;;;;;;;4.20;0.77;;;16.70;99.90;;;;;;5087036;28;20027;-75
2022/07/22 01:31:05;;;;;;;3.80;1.00;;;16.70;99.90;;;;;;5075933;28;20051;-75
2022/07/22 01:33:32;;;;;;;3.13;0.95;;;16.70;99.90;;;;;;5070666;28;20066;-75
2022/07/22 01:35:58;;;;;;;3.13;1.05;;;16.70;99.90;;;;;;5105877;28;20040;-75
2022/07/22 01:38:25;;;;;;;2.72;0.95;;;16.70;99.90;;;;;;5096371;28;20047;-75
2022/07/22 01:40:52;;;;;;;2.78;1.17;;;16.70;99.90;;;;;;5104426;28;20032;-75
2022/07/22 01:43:20;;;;;;;2.13;1.08;;;16.70;99.90;;;;;;5097649;28;20047;-75
2022/07/22 01:45:51;;;;;;;2.88;0.85;;;16.70;99.90;;;;;;5085019;28;20024;-75
2022/07/22 01:48:20;;;;;;;5.25;1.00;;;16.70;99.90;;;;;;5083099;28;20039;-75
2022/07/22 01:50:46;;;;;;;4.25;1.10;;;16.70;99.90;;;;;;5064785;28;20521;-75
2022/07/22 01:53:13;;;;;;;5.95;1.27;;;16.70;99.90;;;;;;5103632;28;20363;-75
2022/07/22 01:55:40;;;;;;;3.03;1.00;;;16.70;99.90;;;;;;5049485;28;20032;-75
2022/07/22 01:58:06;;;;;;;5.20;1.20;;;16.70;99.90;;;;;;5088539;28;20070;-75
2022/07/22 02:00:35;;;;;;;3.55;0.98;;;16.70;99.90;;;;;;5097843;28;20518;-75
2022/07/22 02:03:04;;;;;;;3.40;1.45;;;16.70;99.90;;;;;;5100263;28;20032;-74
2022/07/22 02:05:32;;;;;;;4.15;1.00;;;16.70;99.90;;;;;;5100149;28;20054;-74
2022/07/22 02:08:07;;;;;;;4.40;1.42;;;16.70;99.90;;;;;;5097613;28;20028;-74
2022/07/22 02:10:54;;;;;;;3.55;1.08;;;16.70;99.90;;;;;;5103949;28;20443;-74
2022/07/22 02:13:20;;;;;;;4.15;1.08;;;16.70;99.90;;;;;;5065512;28;20063;-74
2022/07/22 02:15:47;;;;;;;2.17;0.75;;;16.70;99.90;;;;;;5093594;28;20035;-74
2022/07/22 02:18:16;;;;;;;3.72;0.90;;;16.70;99.90;;;;;;5086029;28;20028;-74
2022/07/22 02:20:44;;;;;;;2.05;0.95;;;16.70;99.90;;;;;;5084984;28;20035;-74
2022/07/22 02:23:11;;;;;;;5.00;1.30;;;16.60;99.90;;;;;;5101867;28;20052;-74
2022/07/22 02:25:39;;;;;;;4.00;1.40;;;16.70;99.90;;;;;;5086156;28;20032;-75
2022/07/22 02:28:06;;;;;;;3.67;1.10;;;16.70;99.90;;;;;;5101751;28;20032;-75
2022/07/22 02:30:32;;;;;;;4.53;1.50;;;16.60;99.90;;;;;;5103163;28;20037;-75
2022/07/22 02:32:59;;;;;;;3.80;1.30;;;16.60;99.90;;;;;;5084635;28;20036;-75
2022/07/22 02:35:26;;;;;;;3.70;1.10;;;16.60;99.90;;;;;;5058542;28;20029;-75
2022/07/22 02:37:52;;;;;;;5.72;1.40;;;16.60;99.90;;;;;;5098023;28;20036;-74
2022/07/22 02:40:19;;;;;;;5.00;1.25;;;16.60;99.90;;;;;;5070956;28;20051;-74
2022/07/22 02:42:45;;;;;;;3.80;1.42;;;16.60;99.90;;;;;;5066047;28;20526;-74
2022/07/22 02:45:11;;;;;;;5.53;1.83;;;16.60;99.90;;;;;;5082699;28;20024;-74
2022/07/22 02:47:49;;;;;;;6.15;1.85;;;16.50;99.90;;;;;;5099977;28;20043;-74
2022/07/22 02:50:16;;;;;;;4.10;1.98;;;16.50;99.90;;;;;;5086199;28;20359;-74
2022/07/22 02:52:43;;;;;;;5.20;1.45;;;16.50;99.90;;;;;;5067595;28;20035;-74
2022/07/22 02:55:11;;;;;;;3.15;1.60;;;16.50;99.90;;;;;;5097771;28;20047;-74
2022/07/22 02:57:38;;;;;;;6.60;2.08;;;16.50;99.90;;;;;;5067628;28;20029;-74
2022/07/22 03:00:08;;;;;;;5.85;1.88;;;16.50;99.90;;;;;;5079802;28;20521;-74
2022/07/22 03:02:38;;;;;;;7.05;1.60;;;16.50;99.90;;;;;;5083061;28;20423;-74
2022/07/22 03:05:06;;;;;;;3.45;1.65;;;16.50;99.90;;;;;;5079824;28;20032;-74
2022/07/22 03:07:34;;;;;;;3.70;1.45;;;16.50;99.90;;;;;;5100639;28;20387;-74
2022/07/22 03:10:02;;;;;;;2.13;1.50;;;16.60;99.90;;;;;;5059933;28;20032;-74
2022/07/22 03:12:30;;;;;;;3.90;1.20;;;16.60;99.90;;;;;;5064748;28;20046;-74
2022/07/22 03:14:56;;;;;;;4.20;1.30;;;16.60;99.90;;;;;;5099337;28;20063;-74
2022/07/22 03:17:23;;;;;;;3.30;1.20;;;16.50;99.90;;;;;;5104401;28;20043;-74
2022/07/22 03:19:49;;;;;;;3.83;1.88;;;16.60;99.90;;;;;;5084549;28;20033;-74
2022/07/22 03:22:16;;;;;;;2.67;1.20;;;16.60;99.90;;;;;;5058571;28;20036;-74
2022/07/22 03:24:42;;;;;;;4.32;1.70;;;16.60;99.90;;;;;;5100779;28;20356;-74
2022/07/22 03:27:09;;;;;;;4.43;1.60;;;16.60;99.90;;;;;;5101013;28;20023;-74
2022/07/22 03:29:36;;;;;;;4.75;1.63;;;16.50;99.90;;;;;;5068577;28;20492;-74
2022/07/22 03:32:02;;;;;;;7.28;1.98;;;16.50;99.90;;;;;;5082984;28;20036;-75
2022/07/22 03:34:38;;;;;;;6.13;2.35;;;16.50;99.90;;;;;;5082792;28;20036;-75
2022/07/22 03:37:07;;;;;;;3.83;2.13;;;16.50;99.90;;;;;;5064309;28;20033;-74
2022/07/22 03:39:34;;;;;;;4.25;1.98;;;16.50;99.90;;;;;;5080415;28;20406;-74
2022/07/22 03:42:00;;;;;;;4.50;1.67;;;16.50;99.90;;;;;;5060955;28;20036;-74
2022/07/22 03:44:28;;;;;;;2.72;1.20;;;16.60;99.90;;;;;;5094253;28;20356;-74
2022/07/22 03:46:54;;;;;;;5.78;1.40;;;16.60;99.90;;;;;;5086347;28;20027;-74
2022/07/22 03:49:21;;;;;;;3.33;1.60;;;16.60;99.90;;;;;;5099571;28;20035;-74
2022/07/22 03:51:47;;;;;;;4.38;1.65;;;16.60;99.90;;;;;;5096831;28;20509;-74
2022/07/22 03:54:14;;;;;;;3.95;1.70;;;16.60;99.90;;;;;;5081868;28;20383;-74
2022/07/22 03:56:42;;;;;;;6.53;2.10;;;16.70;99.90;;;;;;5083280;28;20033;-74
2022/07/22 03:59:09;;;;;;;4.43;2.03;;;16.60;99.90;;;;;;5085280;28;20391;-74
2022/07/22 04:01:35;;;;;;;4.60;1.88;;;16.60;99.90;;;;;;5075366;28;20047;-74
2022/07/22 04:04:02;;;;;;;3.72;1.83;;;16.60;99.90;;;;;;5080960;28;20044;-74
2022/07/22 04:06:32;;;;;;;8.05;2.08;;;16.70;99.90;;;;;;5089871;28;20036;-74
2022/07/22 04:09:09;;;;;;;5.10;1.80;;;16.60;99.90;;;;;;5094156;28;20020;-74
2022/07/22 04:11:35;;;;;;;4.63;1.95;;;16.60;99.90;;;;;;5096322;28;20043;-74
2022/07/22 04:14:02;;;;;;;4.53;2.38;;;16.60;99.90;;;;;;5065365;28;20335;-74
2022/07/22 04:16:29;;;;;;;5.70;2.50;;;16.60;99.90;;;;;;5083938;28;20036;-74
2022/07/22 04:19:03;;;;;;;6.20;2.35;;;16.60;99.90;;;;;;5066431;28;20027;-74
2022/07/22 04:21:53;;;;;;;4.72;1.83;;;16.60;99.90;;;;;;5091761;28;20503;-74
2022/07/22 04:24:22;;;;;;;4.22;1.65;;;16.60;99.90;;;;;;5067445;28;20047;-74
2022/07/22 04:26:49;;;;;;;7.43;1.73;;;16.60;99.90;;;;;;5101385;28;20483;-74
2022/07/22 04:29:16;;;;;;;4.97;1.90;;;16.60;99.90;;;;;;5079554;28;20033;-74
2022/07/22 04:31:42;;;;;;;4.85;2.10;;;16.60;99.90;;;;;;5080167;28;20044;-75
2022/07/22 04:34:15;;;;;;;;;;;16.50;99.90;;;;;;5099259;28;20036;-75
2022/07/22 04:36:41;;;;;;;7.72;2.10;;;16.40;99.90;;;;;;5080134;28;20270;-75
2022/07/22 04:39:08;;;;;;;4.75;1.65;;;16.40;99.90;;;;;;5089269;28;20489;-74
2022/07/22 04:41:37;;;;;;;4.38;1.52;;;16.40;99.90;;;;;;5086104;28;20390;-74
2022/07/22 04:44:05;;;;;;;3.35;1.40;;;16.30;99.90;;;;;;5083520;28;20409;-74
2022/07/22 04:46:33;;;;;;;5.60;1.23;;;16.30;99.90;;;;;;5077963;28;20031;-75
2022/07/22 04:49:00;;;;;;;4.07;0.93;;;16.30;99.90;;;;;;5074083;28;20032;-74
2022/07/22 04:51:26;;;;;;;4.00;1.15;;;16.30;99.90;;;;;;5098390;28;20040;-74
2022/07/22 04:54:00;;;;;;;3.97;1.15;;;16.30;99.90;;;;;;5096765;28;20039;-74
2022/07/22 04:56:27;;;;;;;2.10;0.80;;;16.20;99.90;;;;;;5100306;28;20479;-74
2022/07/22 04:58:54;;;;;;;5.63;1.08;;;16.20;99.90;;;;;;5079821;28;20039;-74
2022/07/22 05:01:23;;;;;;;3.70;0.80;;;16.30;99.90;;;;;;5066842;28;20403;-74
2022/07/22 05:03:52;;;;;;;2.72;1.00;;;16.30;99.90;;;;;;5070032;28;20364;-74
2022/07/22 05:06:18;;;;;;;4.40;1.30;;;16.40;99.90;;;;;;5100396;28;20093;-74
2022/07/22 05:08:45;;;;;;;2.75;0.95;;;16.40;99.90;;;;;;5077481;28;20032;-74
2022/07/22 05:11:12;;;;;;;2.83;0.98;;;16.40;99.90;;;;;;5096793;28;20023;-74
2022/07/22 05:13:38;;;;;;;5.40;0.88;;;16.40;99.90;;;;;;5078071;28;20028;-74
2022/07/22 05:16:07;;;;;;;4.78;0.90;;;16.50;99.90;;;;;;5098244;28;20487;-74
2022/07/22 05:18:35;;;;;;;4.30;0.90;;;16.40;99.90;;;;;;5076483;28;20039;-74
2022/07/22 05:21:03;;;;;;;2.92;0.90;;;16.40;99.90;;;;;;5095138;28;20035;-74
2022/07/22 05:23:30;;;;;;;1.92;0.90;;;16.50;99.90;;;;;;5091944;28;20403;-75
2022/07/22 05:25:56;;;;;;;3.10;1.00;;;16.50;99.90;;;;;;5099694;28;20028;-75
2022/07/22 05:28:24;;;;;;;5.45;1.02;;;16.60;99.90;;;;;;5064127;28;20044;-73
2022/07/22 05:30:53;;;;;;;5.65;1.10;;;16.60;99.90;;;;;;5078240;28;20031;-75
2022/07/22 05:33:20;;;;;;;6.90;1.55;;;16.60;99.90;;;;;;5077355;28;20049;-74
2022/07/22 05:35:56;;;;;;;3.85;1.25;;;16.70;99.90;;;;;;5071550;28;20044;-74
2022/07/22 05:38:27;;;;;;;3.50;0.85;;;16.70;99.90;;;;;;5091917;28;20047;-73
2022/07/22 05:40:54;;;;;;;5.50;0.85;;;16.80;99.90;;;;;;5094818;28;20031;-73
2022/07/22 05:43:20;;;;;;;3.45;1.00;;;16.90;99.90;;;;;;5095818;28;20035;-74
2022/07/22 05:45:47;;;;;;;5.47;1.33;;;16.90;99.90;;;;;;5080134;28;20023;-74
2022/07/22 05:48:13;;;;;;;5.15;1.65;;;17.00;99.90;;;;;;5082316;28;20035;-74
2022/07/22 05:50:39;;;;;;;3.67;0.93;;;17.00;99.90;;;;;;5074241;28;20029;-74
2022/07/22 05:53:06;;;;;;;6.32;1.30;;;17.00;99.90;;;;;;5077733;28;20039;-75
2022/07/22 05:55:33;;;;;;;5.18;1.75;;;17.00;99.90;;;;;;5095413;28;20492;-74
2022/07/22 05:57:59;;;;;;;4.90;1.13;;;17.00;99.90;;;;;;5081326;28;20035;-74
2022/07/22 06:00:26;;;;;;;4.03;0.68;;;17.10;99.90;;;;;;5061060;28;20031;-74
2022/07/22 06:02:52;;;;;;;6.47;1.20;;;17.10;99.90;;;;;;5093504;28;20032;-74
2022/07/22 06:05:20;;;;;;;4.13;1.70;;;17.10;99.90;;;;;;5079964;28;20461;-74
2022/07/22 06:07:47;;;;;;;8.15;5.57;;;17.10;99.90;;;;;;5077307;28;20036;-74
2022/07/22 06:10:24;;;;;;;6.55;2.20;;;17.20;99.90;;;;;;5075178;28;20463;-75
2022/07/22 06:12:51;;;;;;;4.32;1.60;;;17.30;99.90;;;;;;5061259;28;20028;-75
2022/07/22 06:15:17;;;;;;;4.18;0.90;;;17.40;99.90;;;;;;5052474;28;20095;-74
2022/07/22 06:17:44;;;;;;;2.60;1.25;;;17.50;99.90;;;;;;5083664;28;20492;-74
2022/07/22 06:20:11;;;;;;;3.65;0.70;;;17.50;99.90;;;;;;5093750;28;20032;-74
2022/07/22 06:22:41;;;;;;;4.63;0.63;;;17.60;99.90;;;;;;5084213;28;20039;-74
2022/07/22 06:25:09;;;;;;;3.35;0.80;;;17.60;99.90;;;;;;5099397;28;20028;-74
2022/07/22 06:27:35;;;;;;;4.25;0.82;;;17.60;99.90;;;;;;5061984;28;20390;-74
2022/07/22 06:30:03;;;;;;;1.90;0.60;;;17.60;99.90;;;;;;5077883;28;20390;-74
2022/07/22 06:32:30;;;;;;;2.92;0.57;;;17.60;99.90;;;;;;5079029;28;20035;-74
2022/07/22 06:34:57;;;;;;;3.55;1.38;;;17.70;99.90;;;;;;5067493;28;20036;-74
2022/07/22 06:37:23;;;;;;;3.42;0.80;;;17.70;99.90;;;;;;5076813;28;20047;-74
2022/07/22 06:39:50;;;;;;;1.65;0.65;;;17.80;99.90;;;;;;5084570;28;20028;-74
2022/07/22 06:42:19;;;;;;;2.45;0.60;;;17.80;99.90;;;;;;5071254;28;20040;-74
2022/07/22 06:45:05;;;;;;;1.92;0.50;;;17.90;99.90;;;;;;5095605;28;20403;-74
2022/07/22 06:47:54;;;;;;;3.13;0.50;;;17.90;99.90;;;;;;5090155;28;20046;-74
2022/07/22 06:50:21;;;;;;;3.15;0.55;;;17.90;99.90;;;;;;5061689;28;20036;-74
2022/07/22 06:52:48;;;;;;;3.03;0.60;;;17.90;99.90;;;;;;5080934;28;20475;-74
2022/07/22 06:55:15;;;;;;;2.05;0.57;;;18.00;99.90;;;;;;5083663;28;20032;-74
2022/07/22 06:57:49;;;;;;;4.28;0.73;;;18.10;99.90;;;;;;5101938;28;20042;-74
2022/07/22 07:00:17;;;;;;;3.55;0.60;;;18.20;99.90;;;;;;5080027;28;20027;-74
2022/07/22 07:03:06;;;;;;;2.38;0.50;;;18.20;99.90;;;;;;5119340;28;20771;-74
2022/07/22 07:05:33;;;;;;;2.92;0.50;;;18.30;99.90;;;;;;5095596;28;20032;-74
2022/07/22 07:07:59;;;;;;;2.80;0.60;;;18.30;99.90;;;;;;5091691;28;20032;-74
2022/07/22 07:10:26;;;;;;;3.40;0.68;;;18.30;99.90;;;;;;5068899;28;20035;-74
2022/07/22 07:13:03;;;;;;;5.22;0.60;;;18.30;99.90;;;;;;5053106;28;20032;-75
2022/07/22 07:15:41;;;;;;;3.90;0.77;;;18.40;99.90;;;;;;5084695;28;20036;-74
2022/07/22 07:18:09;;;;;;;3.80;0.68;;;18.50;99.90;;;;;;5054229;28;20041;-74
2022/07/22 07:20:36;;;;;;;2.33;0.73;;;18.50;99.90;;;;;;5085712;28;20364;-74
2022/07/22 07:23:05;;;;;;;2.78;0.65;;;18.60;99.90;;;;;;5099554;28;20048;-74
2022/07/22 07:25:36;;;;;;;4.43;0.70;;;18.70;99.90;;;;;;5065529;28;20032;-74
2022/07/22 07:28:02;;;;;;;6.45;0.90;;;18.90;99.90;;;;;;5084899;28;20039;-74
2022/07/22 07:31:04;;;;;;;4.47;0.60;;;18.90;99.90;;;;;;5066097;28;20063;-74
2022/07/22 07:33:33;;;;;;;5.07;0.90;;;19.00;99.90;;;;;;5095687;28;20379;-74
2022/07/22 07:35:59;;;;;;;2.70;0.75;;;19.00;99.90;;;;;;5103822;28;20039;-74
2022/07/22 07:38:37;;;;;;;4.65;0.70;;;19.00;99.90;;;;;;5078671;28;20039;-74
2022/07/22 07:41:08;;;;;;;4.97;0.70;;;19.00;99.90;;;;;;5095922;28;20032;-74
2022/07/22 07:43:35;;;;;;;3.60;0.60;;;19.00;99.90;;;;;;5083844;28;20040;-74
2022/07/22 07:46:02;;;;;;;3.50;0.50;;;18.90;99.90;;;;;;5096938;28;20028;-74
2022/07/22 07:48:29;;;;;;;5.38;1.30;;;18.80;99.90;;;;;;5099391;28;20387;-74
2022/07/22 07:50:56;;;;;;;3.00;0.50;;;18.80;99.90;;;;;;5085833;28;20039;-74
2022/07/22 07:53:22;;;;;;;3.55;0.60;;;18.70;99.90;;;;;;5034379;28;20035;-74
2022/07/22 07:55:53;;;;;;;5.22;0.70;;;18.60;99.90;;;;;;5066338;28;20023;-74
2022/07/22 07:58:32;;;;;;;2.95;0.70;;;18.60;99.90;;;;;;5069457;28;20036;-73
2022/07/22 08:00:59;;;;;;;6.88;0.90;;;18.60;99.90;;;;;;5101137;28;20036;-74
2022/07/22 08:03:26;;;;;;;8.15;1.20;;;18.50;99.90;;;;;;5063144;28;20051;-74
2022/07/22 08:05:52;;;;;;;7.00;0.77;;;18.60;99.90;;;;;;5095741;28;20035;-74
2022/07/22 08:08:21;;;;;;;2.05;0.80;;;18.60;99.90;;;;;;5080322;28;20367;-74
2022/07/22 08:10:49;;;;;;;3.38;1.20;;;18.70;99.90;;;;;;5096773;28;20506;-74
2022/07/22 08:13:33;;;;;;;5.60;0.60;;;18.80;99.90;;;;;;5096942;28;20463;-74
2022/07/22 08:16:15;;;;;;;2.45;0.50;;;18.90;99.90;;;;;;5083496;28;20121;-74
2022/07/22 08:18:41;;;;;;;4.05;0.70;;;19.00;99.90;;;;;;5079322;28;20502;-74
2022/07/22 08:21:08;;;;;;;5.45;0.70;;;19.00;99.90;;;;;;5073260;28;20039;-74
2022/07/22 08:23:43;;;;;;;2.78;0.60;;;19.00;99.90;;;;;;5100138;28;20407;-74
2022/07/22 08:26:09;;;;;;;4.57;0.95;;;19.10;99.90;;;;;;5069022;28;20031;-74
2022/07/22 08:28:36;;;;;;;4.20;0.70;;;19.20;99.90;;;;;;5062578;28;20046;-74
2022/07/22 08:31:03;;;;;;;3.30;0.90;;;19.20;99.90;;;;;;5079592;28;20024;-74
2022/07/22 08:33:30;;;;;;;4.38;0.80;;;19.30;99.90;;;;;;5080385;28;20039;-74
2022/07/22 08:35:56;;;;;;;6.25;1.35;;;19.40;99.90;;;;;;5098223;28;20032;-74
2022/07/22 08:38:23;;;;;;;3.00;0.60;;;19.50;99.90;;;;;;5079026;28;20040;-74
2022/07/22 08:40:50;;;;;;;7.40;1.00;;;19.70;99.90;;;;;;5060606;28;20041;-74
2022/07/22 08:43:17;;;;;;;7.45;0.88;;;19.90;99.90;;;;;;5079384;28;20032;-74
2022/07/22 08:45:43;;;;;;;3.00;0.73;;;20.00;99.90;;;;;;5085309;28;20032;-74
2022/07/22 08:48:10;;;;;;;2.85;0.60;;;20.20;99.90;;;;;;5095899;28;20386;-74
2022/07/22 08:50:55;;;;;;;2.85;0.63;;;20.30;99.90;;;;;;5092250;28;20021;-74
2022/07/22 08:53:30;;;;;;;5.40;0.70;;;20.50;99.90;;;;;;5092762;28;20036;-74
2022/07/22 08:56:02;;;;;;;3.67;0.60;;;20.70;99.90;;;;;;5063309;28;20572;-74
2022/07/22 08:58:30;;;;;;;5.57;0.77;;;20.80;99.90;;;;;;5092060;28;20666;-74
2022/07/22 09:01:10;;;;;;;2.17;0.60;;;20.90;99.90;;;;;;5096276;28;20032;-74
2022/07/22 09:03:55;;;;;;;2.00;0.50;;;21.00;99.90;;;;;;5079761;28;20040;-74
2022/07/22 09:06:30;;;;;;;2.40;0.50;;;21.20;99.90;;;;;;5079687;28;20020;-74
2022/07/22 09:09:04;;;;;;;2.72;0.80;;;21.40;99.90;;;;;;5098512;28;20028;-74
2022/07/22 09:12:09;;;;;;;1.88;0.47;;;21.50;99.90;;;;;;5099160;28;20023;-74
2022/07/22 09:14:55;;;;;;;3.95;0.40;;;21.30;99.90;;;;;;5102150;28;20036;-74
2022/07/22 09:17:40;;;;;;;4.55;0.50;;;21.10;99.90;;;;;;5100605;28;20494;-74
2022/07/22 09:20:38;;;;;;;2.28;0.80;;;21.00;99.90;;;;;;5063357;28;20040;-73
2022/07/22 09:23:39;;;;;;;2.78;0.70;;;20.90;99.90;;;;;;5083218;28;20047;-75
2022/07/22 09:26:05;;;;;;;7.25;2.17;;;20.80;99.90;;;;;;5076315;28;20032;-74
2022/07/22 09:29:02;;;;;;;3.03;1.00;;;20.80;99.90;;;;;;5065502;28;20040;-74
2022/07/22 09:31:31;;;;;;;7.03;1.80;;;20.80;99.90;;;;;;5095579;28;20032;-74
2022/07/22 09:34:30;;;;;;;4.82;0.70;;;20.80;99.90;;;;;;5090817;28;20384;-75
2022/07/22 09:37:02;;;;;;;2.70;0.70;;;21.10;99.90;;;;;;5097838;28;20371;-75
2022/07/22 09:39:32;;;;;;;2.20;0.60;;;21.20;99.90;;;;;;5072974;28;20036;-74
2022/07/22 09:42:03;;;;;;;3.22;0.80;;;21.40;99.90;;;;;;5077792;28;20108;-75
2022/07/22 09:44:30;;;;;;;2.47;0.50;;;21.60;99.90;;;;;;5078290;28;20044;-75
2022/07/22 09:47:01;;;;;;;5.43;1.73;;;21.70;99.90;;;;;;5078374;28;20043;-75
2022/07/22 09:49:48;;;;;;;3.03;0.77;;;21.70;99.90;;;;;;5095322;28;20050;-75
2022/07/22 09:52:42;;;;;;;2.28;0.60;;;21.70;99.90;;;;;;5078762;28;20041;-76
2022/07/22 09:55:16;;;;;;;9.18;0.90;;;21.80;99.90;;;;;;5095258;28;21095;-76
2022/07/22 09:57:44;;;;;;;3.55;0.65;;;22.00;99.90;;;;;;5096774;28;20028;-76
2022/07/22 10:00:12;;;;;;;4.00;0.60;;;22.00;99.90;;;;;;5072249;28;20414;-75
2022/07/22 10:02:55;;;;;;;2.33;0.40;;;22.30;99.90;;;;;;5095081;28;20032;-75
2022/07/22 10:05:24;;;;;;;3.72;0.90;;;22.60;99.90;;;;;;5077117;28;20039;-75
2022/07/22 10:07:53;;;;;;;5.10;2.25;;;22.80;99.90;;;;;;5093370;28;20033;-75
2022/07/22 10:10:22;;;;;;;5.85;1.38;;;22.80;99.90;;;;;;5090295;28;20036;-79
2022/07/22 10:12:50;;;;;;;1.40;0.50;;;22.80;99.90;;;;;;5092726;28;20399;-77
2022/07/22 10:15:17;;;;;;;4.95;0.70;;;22.80;99.90;;;;;;5062208;28;20034;-77
2022/07/22 10:17:50;;;;;;;2.13;0.40;;;22.90;99.90;;;;;;5083177;28;20028;-77
2022/07/22 10:20:17;;;;;;;;;;;23.10;99.90;;;;;;5078490;28;20509;-77
2022/07/22 10:23:01;;;;;;;2.90;0.40;;;23.20;99.90;;;;;;5078367;28;19912;-77
2022/07/22 10:25:51;;;;;;;1.85;0.40;;;23.30;99.90;;;;;;5068256;28;20067;-77
2022/07/22 10:28:37;;;;;;;4.25;0.60;;;23.40;99.90;;;;;;5079041;28;20368;-77
2022/07/22 10:31:19;;;;;;;3.30;1.25;;;23.50;99.90;;;;;;5084380;28;20050;-78
2022/07/22 10:33:49;;;;;;;2.03;0.68;;;23.60;99.90;;;;;;5099050;28;20043;-78
2022/07/22 10:36:36;;;;;;;1.77;0.50;;;23.80;99.90;;;;;;5076556;28;20023;-78
2022/07/22 10:39:11;;;;;;;1.98;0.77;;;24.00;99.90;;;;;;5059316;28;20383;-78
2022/07/22 10:41:43;;;;;;;2.58;0.50;;;24.00;99.90;;;;;;5078958;28;20333;-78
2022/07/22 10:44:11;;;;;;;1.88;0.40;;;23.90;99.90;;;;;;5078477;28;20025;-78
2022/07/22 10:46:50;;;;;;;3.15;0.50;;;24.00;99.90;;;;;;5085610;28;20024;-78
2022/07/22 10:49:19;;;;;;;3.03;0.90;;;24.10;99.90;;;;;;5080470;28;20032;-80
2022/07/22 10:52:16;;;;;;;1.90;0.98;;;24.10;99.90;;;;;;5083353;28;20027;-78
2022/07/22 10:55:18;;;;;;;3.58;0.80;;;24.10;99.90;;;;;;5095097;28;20368;-79
2022/07/22 10:57:45;;;;;;;1.97;0.50;;;24.20;99.90;;;;;;5077323;28;20518;-80
2022/07/22 11:00:11;;;;;;;2.75;0.43;;;24.20;99.40;;;;;;5079591;28;20047;-77
2022/07/22 11:02:38;;;;;;;2.03;0.50;;;24.10;99.10;;;;;;5059171;28;20054;-78
2022/07/22 11:05:05;;;;;;;0.93;0.35;;;24.00;99.30;;;;;;5061513;28;20044;-78
2022/07/22 11:07:34;;;;;;;3.42;0.82;;;24.00;99.50;;;;;;5092910;28;20055;-78
2022/07/22 11:10:19;;;;;;;3.00;0.50;;;24.10;98.60;;;;;;5092569;28;20036;-78
2022/07/22 11:12:48;;;;;;;2.25;0.60;;;24.30;99.00;;;;;;5094093;28;20388;-78
2022/07/22 11:15:14;;;;;;;2.05;0.80;;;24.50;98.40;;;;;;5096005;28;20032;-78
2022/07/22 11:17:41;;;;;;;2.05;0.70;;;24.50;97.70;;;;;;5082187;28;20032;-78
2022/07/22 11:20:13;;;;;;;3.47;0.80;;;24.60;98.10;;;;;;5063939;28;20046;-77
2022/07/22 11:22:39;;;;;;;2.47;0.60;;;24.70;97.80;;;;;;5092984;28;20032;-78
2022/07/22 11:25:08;;;;;;;2.35;0.43;;;24.70;97.70;;;;;;5071219;28;20031;-78
2022/07/22 11:27:35;;;;;;;3.45;0.50;;;24.70;97.10;;;;;;5102969;28;20035;-78
2022/07/22 11:30:04;;;;;;;1.10;0.40;;;24.70;96.90;;;;;;5099369;28;20332;-78
2022/07/22 11:32:31;;;;;;;2.53;0.50;;;24.80;97.00;;;;;;5066274;28;20032;-76
2022/07/22 11:34:59;;;;;;;2.30;1.10;;;25.00;96.70;;;;;;5081891;28;20084;-76
2022/07/22 11:37:26;;;;;;;2.03;0.77;;;25.30;96.70;;;;;;5092903;28;20032;-76
2022/07/22 11:40:04;;;;;;;2.17;0.57;;;25.50;95.90;;;;;;5071770;28;20040;-76
2022/07/22 11:42:31;;;;;;;2.30;0.50;;;25.70;95.60;;;;;;5097770;28;20036;-76
2022/07/22 11:44:58;;;;;;;3.05;0.63;;;26.30;95.30;;;;;;5083417;28;20032;-76
2022/07/22 11:47:25;;;;;;;1.30;0.38;;;26.80;94.20;;;;;;5065568;28;20028;-77
2022/07/22 11:49:51;;;;;;;3.42;0.50;;;27.20;93.90;;;;;;5061912;28;20035;-76
2022/07/22 11:52:18;;;;;;;3.00;0.68;;;27.60;93.30;;;;;;5092877;28;20024;-77
2022/07/22 11:54:45;;;;;;;1.90;0.40;;;27.50;92.60;;;;;;5078596;28;20040;-77
2022/07/22 11:57:13;;;;;;;1.05;0.60;;;27.10;91.60;;;;;;5064048;28;20048;-77
2022/07/22 11:59:40;;;;;;;0.95;0.40;;;26.60;91.70;;;;;;5100600;28;20039;-76
2022/07/22 12:02:09;;;;;;;2.33;0.50;;;26.30;92.20;;;;;;5080366;28;20036;-76
2022/07/22 12:04:36;;;;;;;2.08;0.40;;;25.90;91.90;;;;;;5084846;28;20032;-76
2022/07/22 12:07:04;;;;;;;1.70;0.50;;;25.60;92.40;;;;;;5085267;28;20028;-77
2022/07/22 12:09:34;;;;;;;2.00;0.70;;;25.60;92.70;;;;;;5081145;28;20042;-77
2022/07/22 12:12:00;;;;;;;3.40;1.50;;;25.60;92.40;;;;;;5097001;28;20032;-77
2022/07/22 12:14:30;;;;;;;2.20;0.65;;;25.60;92.60;;;;;;5100247;28;20414;-77
2022/07/22 12:17:09;;;;;;;2.92;0.40;;;25.40;91.90;;;;;;5091282;28;20036;-76
2022/07/22 12:19:37;;;;;;;1.25;0.40;;;25.20;92.40;;;;;;5092198;28;20383;-76
2022/07/22 12:22:07;;;;;;;1.45;0.40;;;25.20;92.10;;;;;;5077159;28;20036;-76
2022/07/22 12:24:45;;;;;;;2.50;0.68;;;25.10;92.20;;;;;;5098574;28;20402;-76
2022/07/22 12:27:13;;;;;;;2.03;0.60;;;25.10;92.20;;;;;;5098546;28;20024;-76
2022/07/22 12:29:39;;;;;;;1.88;0.70;;;24.90;92.00;;;;;;5086201;28;20035;-76
2022/07/22 12:32:06;;;;;;;2.08;0.50;;;25.00;92.20;;;;;;5067885;28;20038;-76
2022/07/22 12:34:44;;;;;;;1.58;0.50;;;25.10;92.20;;;;;;5070751;28;20043;-75
2022/07/22 12:37:18;;;;;;;4.13;1.73;;;25.30;92.40;;;;;;5094090;28;20050;-76
2022/07/22 12:40:08;;;;;;;2.15;0.60;;;26.10;91.60;;;;;;5086980;28;20036;-77
2022/07/22 12:42:43;;;;;;;3.30;0.57;;;27.30;90.30;;;;;;5095853;28;20105;-76
2022/07/22 12:45:11;;;;;;;;;;;27.40;86.90;;;;;;5088996;28;20036;-77
2022/07/22 12:48:03;;;;;;;1.40;0.60;;;27.30;87.40;;;;;;5084753;28;20001;-77
2022/07/22 12:50:35;;;;;;;1.85;0.88;;;27.60;86.10;;;;;;5083365;28;20038;-77
2022/07/22 12:53:05;;;;;;;2.13;0.50;;;27.40;86.10;;;;;;5092965;28;20028;-77
2022/07/22 12:55:34;;;;;;;1.98;0.50;;;27.10;86.30;;;;;;5084869;28;20387;-77
2022/07/22 12:58:01;;;;;;;2.58;0.77;;;26.70;87.60;;;;;;5077987;28;20043;-77
2022/07/22 13:00:35;;;;;;;1.13;0.60;;;26.50;88.50;;;;;;5101614;28;20032;-77
2022/07/22 13:03:02;;;;;;;2.00;1.13;;;26.40;87.70;;;;;;5089094;28;20036;-77